Time;durP1;ratioP1;P1;durP2;ratioP2;P2;SDS_P1;SDS_P2;PMS_P1;PMS_P2;Temp;Humidity;BMP_temperature;BMP_pressure;BME280_temperature;BME280_humidity;BME280_pressure;Samples;Min_cycle;Max_cycle;Signal;HPM_P1;HPM_P2
2023/07/27 00:01:52;;;;;;;3.30;2.08;;;;;;;;;;5052438;28;20578;-80
2023/07/27 00:04:21;;;;;;;5.80;2.08;;;;;;;;;;5053828;28;20049;-79
2023/07/27 00:06:48;;;;;;;3.78;2.38;;;;;;;;;;5050608;28;20036;-80
2023/07/27 00:09:15;;;;;;;3.75;2.08;;;;;;;;;;5053782;28;20033;-81
2023/07/27 00:11:42;;;;;;;4.82;2.22;;;;;;;;;;5053462;28;20118;-78
2023/07/27 00:14:08;;;;;;;5.75;2.33;;;;;;;;;;5053178;28;20045;-80
2023/07/27 00:16:35;;;;;;;5.53;2.10;;;;;;;;;;5054965;28;20386;-81
2023/07/27 00:19:02;;;;;;;5.70;2.25;;;;;;;;;;5043854;28;20041;-79
2023/07/27 00:21:29;;;;;;;4.63;2.38;;;;;;;;;;5033870;28;20051;-78
2023/07/27 00:23:56;;;;;;;3.70;2.30;;;;;;;;;;5055469;28;20132;-79
2023/07/27 00:26:22;;;;;;;5.10;2.25;;;;;;;;;;5053617;28;20048;-81
2023/07/27 00:28:52;;;;;;;4.78;2.20;;;;;;;;;;5054545;28;20033;-80
2023/07/27 00:31:21;;;;;;;3.42;2.28;;;;;;;;;;5056877;28;20068;-78
2023/07/27 00:33:48;;;;;;;5.75;2.55;;;;;;;;;;5036236;28;20060;-79
2023/07/27 00:36:15;;;;;;;6.18;2.53;;;;;;;;;;5050398;28;20043;-80
2023/07/27 00:38:41;;;;;;;6.43;2.60;;;;;;;;;;5052716;28;20490;-79
2023/07/27 00:41:09;;;;;;;4.95;2.60;;;;;;;;;;5036675;28;20545;-79
2023/07/27 00:43:35;;;;;;;5.00;2.05;;;;;;;;;;5054424;28;20119;-80
2023/07/27 00:46:02;;;;;;;5.38;2.40;;;;;;;;;;5055688;28;20147;-80
2023/07/27 00:48:29;;;;;;;3.78;2.42;;;;;;;;;;5056062;28;20165;-79
2023/07/27 00:50:56;;;;;;;5.22;2.58;;;;;;;;;;5035226;28;20100;-79
2023/07/27 00:53:23;;;;;;;4.13;2.75;;;;;;;;;;5056474;28;20055;-79
2023/07/27 00:55:50;;;;;;;5.72;2.50;;;;;;;;;;5010746;28;20069;-78
2023/07/27 00:58:17;;;;;;;5.90;2.47;;;;;;;;;;5045600;28;20112;-79
2023/07/27 01:00:43;;;;;;;4.93;2.35;;;;;;;;;;5056797;28;20040;-79
2023/07/27 01:03:13;;;;;;;5.30;2.55;;;;;;;;;;5055906;28;20044;-79
2023/07/27 01:05:40;;;;;;;4.75;2.38;;;;;;;;;;5035935;28;20046;-78
2023/07/27 01:08:06;;;;;;;6.85;2.42;;;;;;;;;;5034010;28;20041;-80
2023/07/27 01:10:41;;;;;;;5.03;2.15;;;;;;;;;;5048364;28;20072;-79
2023/07/27 01:13:31;;;;;;;5.00;2.63;;;;;;;;;;5055730;28;20044;-78
2023/07/27 01:16:04;;;;;;;4.57;2.53;;;;;;;;;;5035130;28;20046;-80
2023/07/27 01:18:48;;;;;;;5.88;2.88;;;;;;;;;;5034285;28;20048;-81
2023/07/27 01:21:17;;;;;;;4.68;2.50;;;;;;;;;;5035609;28;20040;-79
2023/07/27 01:23:44;;;;;;;5.65;2.50;;;;;;;;;;5018684;28;20049;-78
2023/07/27 01:26:10;;;;;;;4.57;2.30;;;;;;;;;;5032944;28;20034;-79
2023/07/27 01:28:47;;;;;;;6.78;2.58;;;;;;;;;;5017929;28;20372;-79
2023/07/27 01:31:21;;;;;;;4.22;2.40;;;;;;;;;;5035924;28;20492;-79
2023/07/27 01:33:52;;;;;;;7.22;2.75;;;;;;;;;;5037361;28;20531;-80
2023/07/27 01:36:21;;;;;;;6.13;2.45;;;;;;;;;;5054689;28;20080;-79
2023/07/27 01:38:48;;;;;;;6.10;2.30;;;;;;;;;;5042755;28;20037;-79
2023/07/27 01:41:15;;;;;;;5.70;2.17;;;;;;;;;;5053614;28;20407;-79
2023/07/27 01:43:43;;;;;;;4.00;2.40;;;;;;;;;;5052407;28;20033;-80
2023/07/27 01:46:11;;;;;;;3.38;2.20;;;;;;;;;;5037834;28;20040;-79
2023/07/27 01:48:38;;;;;;;3.35;2.00;;;;;;;;;;5053240;28;20041;-79
2023/07/27 01:51:06;;;;;;;5.03;2.47;;;;;;;;;;5054870;28;20131;-77
2023/07/27 01:53:37;;;;;;;4.18;2.40;;;;;;;;;;5027742;28;20046;-79
2023/07/27 01:56:05;;;;;;;3.22;2.13;;;;;;;;;;5049438;28;20101;-79
2023/07/27 01:58:32;;;;;;;3.25;2.10;;;;;;;;;;5060353;28;20388;-80
2023/07/27 02:00:59;;;;;;;4.15;1.88;;;;;;;;;;5038939;28;20056;-79
2023/07/27 02:03:26;;;;;;;6.90;2.33;;;;;;;;;;5040990;28;20227;-80
2023/07/27 02:05:53;;;;;;;5.60;1.85;;;;;;;;;;5059906;28;20049;-79
2023/07/27 02:08:20;;;;;;;3.28;2.15;;;;;;;;;;5037639;28;20164;-79
2023/07/27 02:10:50;;;;;;;5.97;2.45;;;;;;;;;;5035993;28;20037;-81
2023/07/27 02:13:21;;;;;;;3.28;1.90;;;;;;;;;;5038354;28;20076;-80
2023/07/27 02:15:51;;;;;;;3.75;2.20;;;;;;;;;;5022631;28;20046;-79
2023/07/27 02:18:22;;;;;;;3.33;1.90;;;;;;;;;;5017948;28;20408;-79
2023/07/27 02:20:50;;;;;;;7.22;2.30;;;;;;;;;;5040714;28;20097;-80
2023/07/27 02:23:17;;;;;;;3.05;2.10;;;;;;;;;;5040328;28;20064;-79
2023/07/27 02:25:44;;;;;;;3.10;1.83;;;;;;;;;;5019128;28;20041;-79
2023/07/27 02:28:11;;;;;;;4.20;2.08;;;;;;;;;;5041526;28;20033;-80
2023/07/27 02:30:38;;;;;;;4.65;2.20;;;;;;;;;;5021044;28;20099;-79
2023/07/27 02:33:05;;;;;;;4.75;2.47;;;;;;;;;;5017533;28;20064;-79
2023/07/27 02:35:32;;;;;;;4.47;2.20;;;;;;;;;;4997533;28;20534;-78
2023/07/27 02:37:59;;;;;;;4.95;2.33;;;;;;;;;;5018500;28;20455;-79
2023/07/27 02:40:27;;;;;;;2.97;1.98;;;;;;;;;;5032798;28;20787;-79
2023/07/27 02:42:54;;;;;;;3.90;2.03;;;;;;;;;;5036446;28;20444;-79
2023/07/27 02:45:22;;;;;;;5.72;2.20;;;;;;;;;;5037035;28;20037;-80
2023/07/27 02:47:49;;;;;;;3.63;1.98;;;;;;;;;;5028749;28;20045;-81
2023/07/27 02:50:15;;;;;;;4.75;2.03;;;;;;;;;;5038316;28;20049;-79
2023/07/27 02:52:58;;;;;;;3.75;2.10;;;;;;;;;;5034300;28;20621;-79
2023/07/27 02:55:24;;;;;;;4.13;2.45;;;;;;;;;;5035856;28;20424;-80
2023/07/27 02:57:53;;;;;;;7.07;2.17;;;;;;;;;;5048843;28;20045;-80
2023/07/27 03:00:20;;;;;;;3.30;2.15;;;;;;;;;;5024677;28;20102;-79
2023/07/27 03:02:48;;;;;;;4.22;2.20;;;;;;;;;;5010988;28;20042;-79
2023/07/27 03:05:18;;;;;;;5.32;2.33;;;;;;;;;;5024646;28;20406;-80
2023/07/27 03:07:45;;;;;;;9.05;2.40;;;;;;;;;;5025857;28;20052;-79
2023/07/27 03:10:12;;;;;;;4.15;2.03;;;;;;;;;;5039054;28;20099;-80
2023/07/27 03:12:39;;;;;;;9.90;2.45;;;;;;;;;;5034767;28;20033;-79
2023/07/27 03:15:05;;;;;;;5.80;2.15;;;;;;;;;;5056906;28;20044;-80
2023/07/27 03:17:32;;;;;;;5.90;2.38;;;;;;;;;;5052478;28;20045;-79
2023/07/27 03:19:59;;;;;;;3.63;2.03;;;;;;;;;;5042978;28;20088;-81
2023/07/27 03:22:25;;;;;;;5.47;2.58;;;;;;;;;;5041874;28;20091;-81
2023/07/27 03:24:52;;;;;;;3.55;2.03;;;;;;;;;;5041801;28;20854;-80
2023/07/27 03:27:19;;;;;;;4.82;2.35;;;;;;;;;;5031778;28;20045;-80
2023/07/27 03:29:45;;;;;;;5.00;2.20;;;;;;;;;;5005889;28;20080;-78
2023/07/27 03:32:12;;;;;;;2.75;1.88;;;;;;;;;;5014906;28;20051;-78
2023/07/27 03:34:40;;;;;;;3.35;1.90;;;;;;;;;;5013378;28;20491;-79
2023/07/27 03:37:06;;;;;;;6.13;2.03;;;;;;;;;;5012111;28;20034;-79
2023/07/27 03:39:34;;;;;;;3.80;1.95;;;;;;;;;;5011215;28;20037;-79
2023/07/27 03:42:00;;;;;;;7.45;2.03;;;;;;;;;;5011842;28;20500;-78
2023/07/27 03:44:28;;;;;;;3.58;2.05;;;;;;;;;;5014167;28;20057;-79
2023/07/27 03:46:54;;;;;;;3.22;1.88;;;;;;;;;;5012792;28;20042;-80
2023/07/27 03:49:21;;;;;;;4.38;2.17;;;;;;;;;;5032551;28;20099;-78
2023/07/27 03:51:48;;;;;;;3.45;2.00;;;;;;;;;;5016258;28;20108;-79
2023/07/27 03:54:14;;;;;;;5.43;2.28;;;;;;;;;;5016407;28;20033;-79
2023/07/27 03:56:41;;;;;;;3.55;1.90;;;;;;;;;;5013869;28;20195;-79
2023/07/27 03:59:07;;;;;;;4.15;2.20;;;;;;;;;;5012548;28;20049;-79
2023/07/27 04:01:34;;;;;;;4.43;1.83;;;;;;;;;;5007747;28;20064;-78
2023/07/27 04:04:00;;;;;;;6.53;2.13;;;;;;;;;;5009895;28;20060;-79
2023/07/27 04:06:28;;;;;;;6.88;2.05;;;;;;;;;;4999635;28;20057;-79
2023/07/27 04:08:55;;;;;;;3.13;1.95;;;;;;;;;;5032197;28;20053;-79
2023/07/27 04:11:21;;;;;;;4.68;2.15;;;;;;;;;;5026531;28;20040;-79
2023/07/27 04:13:48;;;;;;;4.10;1.92;;;;;;;;;;5007436;28;20034;-80
2023/07/27 04:16:14;;;;;;;5.40;2.15;;;;;;;;;;5027832;28;20479;-79
2023/07/27 04:18:41;;;;;;;4.80;2.03;;;;;;;;;;5009516;28;20117;-79
2023/07/27 04:21:08;;;;;;;3.55;1.70;;;;;;;;;;5007972;28;20120;-79
2023/07/27 04:23:34;;;;;;;4.85;2.00;;;;;;;;;;5034891;28;20056;-78
2023/07/27 04:26:02;;;;;;;3.92;2.00;;;;;;;;;;5006994;28;20857;-79
2023/07/27 04:28:31;;;;;;;5.20;1.70;;;;;;;;;;5014458;28;20045;-79
2023/07/27 04:30:58;;;;;;;3.92;1.80;;;;;;;;;;5010865;28;20033;-79
2023/07/27 04:33:27;;;;;;;3.42;2.00;;;;;;;;;;5032554;28;20053;-79
2023/07/27 04:35:59;;;;;;;3.25;1.65;;;;;;;;;;5015177;28;20034;-79
2023/07/27 04:38:26;;;;;;;4.85;2.00;;;;;;;;;;5027577;28;20037;-80
2023/07/27 04:40:52;;;;;;;5.72;2.17;;;;;;;;;;5032738;28;20049;-79
2023/07/27 04:43:19;;;;;;;3.33;1.70;;;;;;;;;;5016177;28;20112;-81
2023/07/27 04:45:49;;;;;;;13.43;2.13;;;;;;;;;;5012514;28;20041;-79
2023/07/27 04:48:16;;;;;;;4.22;1.90;;;;;;;;;;5031254;28;20041;-78
2023/07/27 04:50:42;;;;;;;4.80;1.67;;;;;;;;;;5015865;28;20033;-79
2023/07/27 04:53:09;;;;;;;3.55;1.70;;;;;;;;;;5033593;28;20053;-80
2023/07/27 04:55:35;;;;;;;3.08;1.70;;;;;;;;;;5006956;28;20046;-79
2023/07/27 04:58:02;;;;;;;5.25;2.08;;;;;;;;;;5034610;28;20037;-78
2023/07/27 05:00:30;;;;;;;2.72;1.63;;;;;;;;;;5032647;28;20045;-81
2023/07/27 05:02:57;;;;;;;4.03;1.83;;;;;;;;;;5053270;28;20059;-79
2023/07/27 05:05:24;;;;;;;3.38;1.45;;;;;;;;;;5027366;28;20068;-78
2023/07/27 05:07:50;;;;;;;5.40;1.67;;;;;;;;;;5048590;28;20075;-78
2023/07/27 05:10:17;;;;;;;3.20;1.63;;;;;;;;;;5049582;28;20072;-80
2023/07/27 05:12:43;;;;;;;4.95;1.80;;;;;;;;;;5034716;28;20131;-80
2023/07/27 05:15:10;;;;;;;2.65;1.70;;;;;;;;;;5052990;28;20483;-79
2023/07/27 05:17:37;;;;;;;2.90;1.42;;;;;;;;;;5055374;28;20060;-79
2023/07/27 05:20:04;;;;;;;5.30;1.95;;;;;;;;;;5036528;28;20045;-81
2023/07/27 05:22:30;;;;;;;3.83;1.80;;;;;;;;;;5055277;28;20491;-80
2023/07/27 05:24:57;;;;;;;2.42;1.40;;;;;;;;;;5052001;28;20056;-80
2023/07/27 05:27:24;;;;;;;4.25;1.63;;;;;;;;;;5057237;28;20095;-78
2023/07/27 05:29:51;;;;;;;4.43;1.80;;;;;;;;;;5060110;28;20036;-81
2023/07/27 05:32:17;;;;;;;4.32;1.83;;;;;;;;;;5061335;28;20263;-79
2023/07/27 05:34:44;;;;;;;3.92;2.03;;;;;;;;;;5060002;28;20108;-79
2023/07/27 05:37:11;;;;;;;3.80;1.73;;;;;;;;;;5060964;28;20080;-79
2023/07/27 05:39:40;;;;;;;3.47;1.80;;;;;;;;;;5068081;28;20099;-79
2023/07/27 05:42:06;;;;;;;3.03;1.67;;;;;;;;;;5069979;28;20037;-78
2023/07/27 05:44:33;;;;;;;3.55;1.90;;;;;;;;;;5063190;28;20044;-80
2023/07/27 05:47:02;;;;;;;4.45;2.00;;;;;;;;;;5043626;28;20665;-79
2023/07/27 05:49:29;;;;;;;3.00;1.65;;;;;;;;;;5057098;28;20049;-80
2023/07/27 05:51:56;;;;;;;4.40;2.00;;;;;;;;;;5052702;28;20044;-78
2023/07/27 05:54:22;;;;;;;3.53;1.70;;;;;;;;;;5032694;28;20064;-77
2023/07/27 05:56:49;;;;;;;3.90;1.98;;;;;;;;;;5035668;28;20124;-79
2023/07/27 05:59:15;;;;;;;5.13;1.73;;;;;;;;;;5054521;28;20515;-78
2023/07/27 06:01:42;;;;;;;4.63;1.85;;;;;;;;;;5059581;28;20041;-79
2023/07/27 06:04:09;;;;;;;4.45;1.95;;;;;;;;;;5056659;28;20041;-79
2023/07/27 06:06:36;;;;;;;3.40;1.75;;;;;;;;;;5059926;28;20068;-79
2023/07/27 06:09:03;;;;;;;3.72;1.70;;;;;;;;;;5058846;28;20047;-79
2023/07/27 06:11:30;;;;;;;4.03;1.50;;;;;;;;;;5054516;28;20072;-79
2023/07/27 06:13:57;;;;;;;4.85;1.70;;;;;;;;;;5057125;28;20500;-79
2023/07/27 06:16:26;;;;;;;4.25;1.85;;;;;;;;;;5054699;28;20502;-78
2023/07/27 06:18:53;;;;;;;3.70;1.73;;;;;;;;;;5058979;28;20071;-79
2023/07/27 06:21:20;;;;;;;5.07;1.77;;;;;;;;;;5059048;28;20077;-79
2023/07/27 06:23:46;;;;;;;3.97;1.92;;;;;;;;;;5062131;28;20060;-80
2023/07/27 06:26:13;;;;;;;3.65;1.73;;;;;;;;;;5059015;28;20041;-81
2023/07/27 06:28:39;;;;;;;4.88;2.00;;;;;;;;;;5062263;28;20037;-80
2023/07/27 06:31:06;;;;;;;3.95;1.42;;;;;;;;;;5059907;28;20180;-77
2023/07/27 06:33:33;;;;;;;3.80;1.90;;;;;;;;;;5030587;28;20136;-79
2023/07/27 06:35:59;;;;;;;3.22;1.73;;;;;;;;;;5035814;28;20060;-80
2023/07/27 06:38:26;;;;;;;4.20;1.52;;;;;;;;;;5012662;28;20049;-80
2023/07/27 06:40:53;;;;;;;4.25;2.25;;;;;;;;;;5020761;28;20149;-80
2023/07/27 06:43:20;;;;;;;3.60;1.85;;;;;;;;;;5003647;28;20046;-80
2023/07/27 06:45:46;;;;;;;3.40;1.80;;;;;;;;;;5014528;28;20109;-79
2023/07/27 06:48:13;;;;;;;5.75;1.65;;;;;;;;;;5035264;28;20095;-79
2023/07/27 06:50:40;;;;;;;2.60;1.50;;;;;;;;;;5019490;28;20125;-80
2023/07/27 06:53:07;;;;;;;4.15;1.45;;;;;;;;;;5017089;28;20042;-79
2023/07/27 06:55:33;;;;;;;3.95;1.60;;;;;;;;;;5035229;28;20053;-78
2023/07/27 06:58:01;;;;;;;2.45;1.38;;;;;;;;;;5016618;28;20037;-80
2023/07/27 07:00:28;;;;;;;3.17;1.75;;;;;;;;;;5032139;28;20110;-81
2023/07/27 07:02:55;;;;;;;2.88;1.40;;;;;;;;;;5037582;28;20049;-81
2023/07/27 07:05:22;;;;;;;3.80;1.70;;;;;;;;;;5030938;28;20056;-80
2023/07/27 07:07:49;;;;;;;2.45;1.55;;;;;;;;;;5055067;28;20049;-79
2023/07/27 07:10:15;;;;;;;5.45;1.45;;;;;;;;;;5033610;28;20101;-79
2023/07/27 07:12:42;;;;;;;2.90;1.33;;;;;;;;;;5036046;28;20045;-79
2023/07/27 07:15:09;;;;;;;2.92;1.45;;;;;;;;;;5023662;28;20052;-80
2023/07/27 07:17:36;;;;;;;3.17;1.52;;;;;;;;;;5035926;28;20128;-81
2023/07/27 07:20:08;;;;;;;2.38;1.63;;;;;;;;;;5036125;28;20053;-80
2023/07/27 07:22:38;;;;;;;2.97;1.40;;;;;;;;;;5034807;28;20412;-80
2023/07/27 07:25:05;;;;;;;2.80;1.60;;;;;;;;;;5028271;28;20071;-80
2023/07/27 07:27:32;;;;;;;4.30;1.80;;;;;;;;;;5042637;28;20048;-80
2023/07/27 07:29:59;;;;;;;3.75;1.55;;;;;;;;;;5039382;28;20064;-80
2023/07/27 07:32:26;;;;;;;2.70;1.70;;;;;;;;;;5024982;28;20066;-77
2023/07/27 07:34:53;;;;;;;3.15;1.90;;;;;;;;;;5055155;28;20033;-80
2023/07/27 07:37:20;;;;;;;4.40;1.88;;;;;;;;;;5039398;28;20090;-81
2023/07/27 07:39:46;;;;;;;3.33;1.20;;;;;;;;;;5025976;28;20037;-80
2023/07/27 07:42:13;;;;;;;3.17;1.40;;;;;;;;;;5039345;28;20087;-80
2023/07/27 07:44:40;;;;;;;2.90;1.50;;;;;;;;;;5036368;28;20057;-78
2023/07/27 07:47:07;;;;;;;2.35;1.38;;;;;;;;;;5033627;28;20064;-79
2023/07/27 07:49:34;;;;;;;5.25;1.70;;;;;;;;;;5037000;28;20530;-79
2023/07/27 07:52:01;;;;;;;2.63;1.45;;;;;;;;;;5036327;28;20060;-80
2023/07/27 07:54:29;;;;;;;2.88;1.55;;;;;;;;;;5028413;28;20057;-80
2023/07/27 07:56:56;;;;;;;4.93;1.50;;;;;;;;;;5015839;28;20064;-80
2023/07/27 07:59:23;;;;;;;3.72;1.58;;;;;;;;;;5036315;28;20037;-80
2023/07/27 08:01:50;;;;;;;2.45;1.40;;;;;;;;;;5016909;28;20071;-80
2023/07/27 08:04:18;;;;;;;4.35;1.73;;;;;;;;;;5016294;28;20042;-79
2023/07/27 08:06:45;;;;;;;2.47;1.40;;;;;;;;;;5001363;28;20083;-80
2023/07/27 08:09:12;;;;;;;2.85;1.52;;;;;;;;;;5020029;28;20209;-80
2023/07/27 08:11:42;;;;;;;2.35;1.23;;;;;;;;;;5038361;28;20116;-80
2023/07/27 08:14:09;;;;;;;1.95;1.20;;;;;;;;;;5020385;28;20052;-80
2023/07/27 08:16:35;;;;;;;4.82;1.23;;;;;;;;;;5018713;28;20388;-79
2023/07/27 08:19:03;;;;;;;4.45;1.65;;;;;;;;;;5038763;28;20049;-79
2023/07/27 08:21:30;;;;;;;3.95;1.70;;;;;;;;;;5012770;28;20546;-79
2023/07/27 08:23:57;;;;;;;2.08;1.45;;;;;;;;;;5035315;28;20056;-79
2023/07/27 08:26:29;;;;;;;4.38;1.50;;;;;;;;;;5034521;28;20568;-79
2023/07/27 08:28:57;;;;;;;5.20;1.77;;;;;;;;;;5027753;28;20096;-81
2023/07/27 08:31:23;;;;;;;2.95;1.40;;;;;;;;;;5010459;28;20045;-80
2023/07/27 08:33:50;;;;;;;4.65;1.42;;;;;;;;;;5005531;28;20045;-79
2023/07/27 08:36:17;;;;;;;2.45;1.30;;;;;;;;;;5016956;28;20065;-80
2023/07/27 08:38:44;;;;;;;4.03;1.40;;;;;;;;;;5019863;28;20049;-79
2023/07/27 08:41:11;;;;;;;2.92;1.48;;;;;;;;;;5031205;28;20071;-79
2023/07/27 08:43:38;;;;;;;3.20;1.50;;;;;;;;;;5030115;28;20415;-78
2023/07/27 08:46:05;;;;;;;2.70;1.30;;;;;;;;;;5029207;28;20076;-79
2023/07/27 08:48:32;;;;;;;2.83;1.83;;;;;;;;;;5033684;28;20051;-79
2023/07/27 08:51:00;;;;;;;6.90;1.70;;;;;;;;;;5051440;28;20080;-78
2023/07/27 08:53:26;;;;;;;4.18;1.23;;;;;;;;;;5032841;28;21151;-78
2023/07/27 08:55:53;;;;;;;3.95;1.77;;;;;;;;;;5030086;28;20542;-81
2023/07/27 08:58:21;;;;;;;2.88;1.67;;;;;;;;;;5036324;28;20079;-79
2023/07/27 09:00:48;;;;;;;4.25;1.60;;;;;;;;;;5036884;28;20068;-79
2023/07/27 09:03:15;;;;;;;5.88;1.60;;;;;;;;;;5037022;28;20063;-79
2023/07/27 09:05:43;;;;;;;2.35;1.33;;;;;;;;;;5034407;28;20103;-79
2023/07/27 09:08:11;;;;;;;2.45;1.65;;;;;;;;;;5024898;28;20048;-78
2023/07/27 09:10:39;;;;;;;3.45;1.42;;;;;;;;;;5036446;28;20047;-79
2023/07/27 09:13:06;;;;;;;3.83;1.55;;;;;;;;;;5019650;28;20041;-79
2023/07/27 09:15:33;;;;;;;3.47;1.23;;;;;;;;;;5021456;28;20050;-79
2023/07/27 09:18:01;;;;;;;5.18;1.60;;;;;;;;;;5023836;28;20049;-79
2023/07/27 09:20:29;;;;;;;2.92;1.35;;;;;;;;;;5022575;28;20121;-80
2023/07/27 09:22:56;;;;;;;3.03;1.50;;;;;;;;;;5020025;28;20115;-80
2023/07/27 09:25:23;;;;;;;3.85;1.48;;;;;;;;;;5019826;28;20046;-80
2023/07/27 09:27:51;;;;;;;3.58;1.50;;;;;;;;;;5020590;28;20037;-79
2023/07/27 09:30:18;;;;;;;2.30;1.55;;;;;;;;;;5011382;28;20041;-79
2023/07/27 09:32:48;;;;;;;2.05;1.35;;;;;;;;;;5019493;28;20053;-80
2023/07/27 09:35:16;;;;;;;3.47;1.33;;;;;;;;;;5017124;28;20073;-80
2023/07/27 09:37:44;;;;;;;3.67;1.50;;;;;;;;;;5036638;28;20041;-80
2023/07/27 09:40:12;;;;;;;3.53;1.75;;;;;;;;;;5038193;28;20042;-80
2023/07/27 09:42:40;;;;;;;3.35;1.88;;;;;;;;;;5039534;28;20228;-79
2023/07/27 09:45:07;;;;;;;5.90;1.70;;;;;;;;;;5017740;28;20041;-79
2023/07/27 09:47:34;;;;;;;3.20;1.23;;;;;;;;;;5017560;28;20038;-79
2023/07/27 09:50:01;;;;;;;3.10;1.58;;;;;;;;;;5016222;28;20137;-80
2023/07/27 09:52:29;;;;;;;3.45;1.58;;;;;;;;;;5035708;28;20049;-79
2023/07/27 09:54:57;;;;;;;2.92;1.25;;;;;;;;;;5030713;28;20049;-78
2023/07/27 09:57:24;;;;;;;2.85;1.30;;;;;;;;;;5031563;28;20060;-80
2023/07/27 09:59:51;;;;;;;5.90;1.38;;;;;;;;;;5035976;28;20056;-79
2023/07/27 10:02:19;;;;;;;4.22;1.42;;;;;;;;;;5036162;28;20049;-80
2023/07/27 10:04:57;;;;;;;3.00;1.33;;;;;;;;;;5023282;28;20049;-79
2023/07/27 10:07:25;;;;;;;4.07;1.38;;;;;;;;;;5033989;28;20065;-80
2023/07/27 10:10:18;;;;;;;1.48;1.10;;;;;;;;;;5010539;28;20056;-80
2023/07/27 10:12:45;;;;;;;2.47;1.30;;;;;;;;;;5035219;28;20057;-79
2023/07/27 10:15:19;;;;;;;2.60;1.20;;;;;;;;;;5060919;28;20049;-77
2023/07/27 10:17:49;;;;;;;1.92;1.17;;;;;;;;;;5038792;28;20140;-80
2023/07/27 10:20:21;;;;;;;3.00;1.33;;;;;;;;;;5019922;28;20057;-77
2023/07/27 10:22:52;;;;;;;4.40;1.48;;;;;;;;;;5019003;28;20708;-80
2023/07/27 10:25:19;;;;;;;3.53;1.45;;;;;;;;;;5037742;28;20038;-80
2023/07/27 10:27:58;;;;;;;2.22;1.33;;;;;;;;;;5019662;28;20061;-79
2023/07/27 10:30:25;;;;;;;4.95;1.60;;;;;;;;;;5018958;28;20073;-80
2023/07/27 10:33:09;;;;;;;4.25;1.48;;;;;;;;;;5016261;28;20065;-82
2023/07/27 10:35:54;;;;;;;3.78;1.50;;;;;;;;;;5010863;28;20129;-76
2023/07/27 10:38:21;;;;;;;5.22;1.42;;;;;;;;;;5022979;28;20076;-79
2023/07/27 10:40:48;;;;;;;3.38;1.48;;;;;;;;;;5038901;28;20041;-79
2023/07/27 10:43:15;;;;;;;3.33;1.27;;;;;;;;;;5029091;28;20050;-80
2023/07/27 10:45:54;;;;;;;3.78;1.75;;;;;;;;;;5045795;28;20037;-79
2023/07/27 10:48:21;;;;;;;3.00;1.30;;;;;;;;;;5039974;28;20068;-80
2023/07/27 10:50:48;;;;;;;2.50;1.30;;;;;;;;;;5038583;28;20036;-79
2023/07/27 10:53:14;;;;;;;2.25;1.35;;;;;;;;;;5039862;28;20089;-80
2023/07/27 10:55:41;;;;;;;4.95;1.70;;;;;;;;;;5036636;28;20423;-80
2023/07/27 10:58:10;;;;;;;2.22;1.48;;;;;;;;;;5039103;28;20068;-78
2023/07/27 11:00:37;;;;;;;3.53;1.55;;;;;;;;;;5002887;28;20064;-79
2023/07/27 11:03:04;;;;;;;3.35;1.83;;;;;;;;;;5040046;28;20048;-80
2023/07/27 11:05:31;;;;;;;3.30;1.58;;;;;;;;;;5028590;28;20042;-80
2023/07/27 11:08:02;;;;;;;3.90;1.80;;;;;;;;;;5031160;28;20042;-79
2023/07/27 11:10:29;;;;;;;2.65;1.42;;;;;;;;;;5042409;28;20099;-82
2023/07/27 11:12:57;;;;;;;2.88;1.52;;;;;;;;;;5028631;28;20060;-80
2023/07/27 11:15:24;;;;;;;2.85;1.60;;;;;;;;;;5043961;28;20045;-80
2023/07/27 11:17:53;;;;;;;3.08;1.60;;;;;;;;;;5019939;28;20042;-80
2023/07/27 11:20:21;;;;;;;4.15;1.45;;;;;;;;;;5030670;28;20072;-80
2023/07/27 11:22:48;;;;;;;2.85;1.80;;;;;;;;;;5037175;28;20089;-79
2023/07/27 11:25:15;;;;;;;3.50;1.80;;;;;;;;;;5035035;28;20072;-81
2023/07/27 11:27:42;;;;;;;5.07;1.75;;;;;;;;;;5035252;28;20069;-79
2023/07/27 11:30:12;;;;;;;3.55;2.20;;;;;;;;;;5035184;28;20088;-79
2023/07/27 11:32:39;;;;;;;4.72;2.33;;;;;;;;;;5037425;28;20045;-80
2023/07/27 11:35:07;;;;;;;5.20;2.30;;;;;;;;;;5036149;28;20542;-80
2023/07/27 11:37:33;;;;;;;4.05;2.00;;;;;;;;;;5035643;28;20476;-80
2023/07/27 11:40:00;;;;;;;4.93;2.05;;;;;;;;;;5026731;28;20069;-80
2023/07/27 11:42:28;;;;;;;5.60;2.42;;;;;;;;;;5033032;28;20617;-79
2023/07/27 11:44:56;;;;;;;5.13;2.35;;;;;;;;;;5035754;28;20052;-79
2023/07/27 11:47:24;;;;;;;6.93;2.55;;;;;;;;;;5012883;28;20057;-79
2023/07/27 11:49:51;;;;;;;4.40;2.10;;;;;;;;;;5033452;28;20538;-79
2023/07/27 11:52:18;;;;;;;4.72;2.47;;;;;;;;;;5003815;28;20052;-79
2023/07/27 11:54:45;;;;;;;4.35;2.33;;;;;;;;;;5023860;28;20053;-79
2023/07/27 11:57:14;;;;;;;4.05;2.42;;;;;;;;;;5001344;28;20041;-80
2023/07/27 11:59:41;;;;;;;5.30;2.40;;;;;;;;;;5033689;28;20053;-79
2023/07/27 12:02:08;;;;;;;5.32;2.58;;;;;;;;;;5033046;28;20196;-80
2023/07/27 12:04:35;;;;;;;3.55;2.38;;;;;;;;;;5031868;28;20077;-81
2023/07/27 12:07:02;;;;;;;5.45;2.42;;;;;;;;;;4999843;28;20527;-79
2023/07/27 12:09:35;;;;;;;4.57;2.30;;;;;;;;;;5014717;28;20365;-80
2023/07/27 12:12:02;;;;;;;6.53;2.70;;;;;;;;;;5019874;28;20124;-80
2023/07/27 12:14:31;;;;;;;5.00;2.30;;;;;;;;;;5036665;28;20055;-80
2023/07/27 12:16:58;;;;;;;4.72;2.50;;;;;;;;;;5008800;28;20037;-80
2023/07/27 12:19:27;;;;;;;8.43;2.60;;;;;;;;;;5015772;28;20054;-79
2023/07/27 12:21:53;;;;;;;6.10;2.25;;;;;;;;;;5034936;28;20041;-79
2023/07/27 12:24:21;;;;;;;5.43;2.40;;;;;;;;;;5033768;28;20045;-80
2023/07/27 12:26:51;;;;;;;6.55;2.45;;;;;;;;;;5036242;28;20045;-80
2023/07/27 12:29:21;;;;;;;4.93;2.67;;;;;;;;;;5034683;28;20077;-80
2023/07/27 12:31:51;;;;;;;3.40;1.95;;;;;;;;;;5038210;28;20040;-81
2023/07/27 12:34:20;;;;;;;6.15;2.28;;;;;;;;;;5037087;28;20057;-79
2023/07/27 12:36:51;;;;;;;6.30;2.40;;;;;;;;;;5025030;28;20044;-80
2023/07/27 12:39:21;;;;;;;5.25;2.20;;;;;;;;;;5033632;28;20057;-79
2023/07/27 12:41:48;;;;;;;3.60;1.95;;;;;;;;;;5036019;28;20069;-80
2023/07/27 12:44:17;;;;;;;3.20;1.83;;;;;;;;;;5022397;28;20054;-80
2023/07/27 12:46:44;;;;;;;3.63;1.90;;;;;;;;;;5036017;28;20248;-80
2023/07/27 12:49:11;;;;;;;5.60;1.90;;;;;;;;;;5027808;28;20045;-80
2023/07/27 12:51:38;;;;;;;4.38;2.03;;;;;;;;;;5038401;28;20107;-79
2023/07/27 12:54:06;;;;;;;3.75;1.80;;;;;;;;;;5056469;28;20041;-79
2023/07/27 12:56:34;;;;;;;3.35;2.08;;;;;;;;;;5034798;28;20049;-80
2023/07/27 12:59:00;;;;;;;3.17;1.90;;;;;;;;;;5049032;28;20051;-80
2023/07/27 13:01:27;;;;;;;2.25;1.70;;;;;;;;;;5039037;28;20110;-80
2023/07/27 13:03:54;;;;;;;3.38;1.67;;;;;;;;;;5040289;28;20052;-79
2023/07/27 13:06:21;;;;;;;4.07;1.95;;;;;;;;;;5021480;28;20049;-79
2023/07/27 13:08:48;;;;;;;5.00;2.15;;;;;;;;;;5056211;28;20491;-79
2023/07/27 13:11:14;;;;;;;3.10;2.05;;;;;;;;;;5021726;28;20044;-82
2023/07/27 13:13:41;;;;;;;3.90;2.10;;;;;;;;;;5036705;28;20065;-81
2023/07/27 13:16:08;;;;;;;3.47;1.70;;;;;;;;;;5028691;28;20410;-80
2023/07/27 13:18:35;;;;;;;3.95;1.98;;;;;;;;;;5038369;28;20088;-79
2023/07/27 13:21:01;;;;;;;3.65;1.95;;;;;;;;;;5025475;28;20044;-79
2023/07/27 13:23:31;;;;;;;5.07;2.25;;;;;;;;;;5040714;28;20052;-80
2023/07/27 13:25:58;;;;;;;3.78;2.25;;;;;;;;;;5036589;28;20588;-80
2023/07/27 13:28:24;;;;;;;5.57;2.45;;;;;;;;;;5036122;28;20103;-79
2023/07/27 13:30:52;;;;;;;4.40;2.30;;;;;;;;;;5023417;28;20049;-80
2023/07/27 13:33:19;;;;;;;3.65;2.30;;;;;;;;;;5025146;28;20057;-81
2023/07/27 13:35:46;;;;;;;4.57;2.30;;;;;;;;;;5020999;28;20446;-80
2023/07/27 13:38:12;;;;;;;4.70;2.40;;;;;;;;;;5036038;28;20045;-79
2023/07/27 13:40:39;;;;;;;5.40;2.03;;;;;;;;;;5016906;28;20050;-80
2023/07/27 13:43:06;;;;;;;4.57;2.25;;;;;;;;;;5026523;28;20073;-79
2023/07/27 13:45:33;;;;;;;3.97;1.92;;;;;;;;;;5005228;28;20110;-79
2023/07/27 13:48:00;;;;;;;7.22;2.28;;;;;;;;;;5030975;28;20052;-80
2023/07/27 13:50:35;;;;;;;;;;;;;;;;;;5013237;28;20042;-80
2023/07/27 13:53:03;;;;;;;5.57;2.30;;;;;;;;;;5014349;28;19929;-80
2023/07/27 13:55:31;;;;;;;3.72;1.92;;;;;;;;;;5012054;28;20050;-80
2023/07/27 13:57:57;;;;;;;5.60;2.15;;;;;;;;;;5034484;28;20049;-80
2023/07/27 14:00:27;;;;;;;3.63;1.80;;;;;;;;;;5037298;28;20667;-80
2023/07/27 14:02:55;;;;;;;7.22;1.90;;;;;;;;;;5036955;28;20049;-80
2023/07/27 14:05:22;;;;;;;3.90;1.75;;;;;;;;;;5017897;28;20117;-80
2023/07/27 14:07:48;;;;;;;2.97;1.80;;;;;;;;;;5024631;28;20045;-80
2023/07/27 14:10:15;;;;;;;4.15;2.00;;;;;;;;;;5040991;28;20037;-79
2023/07/27 14:12:45;;;;;;;5.18;1.85;;;;;;;;;;5050950;28;20057;-81
2023/07/27 14:15:12;;;;;;;3.33;1.70;;;;;;;;;;5026813;28;20434;-79
2023/07/27 14:17:39;;;;;;;4.18;2.10;;;;;;;;;;5010907;28;20045;-81
2023/07/27 14:20:06;;;;;;;3.25;1.52;;;;;;;;;;5019759;28;20045;-80
2023/07/27 14:22:35;;;;;;;3.38;2.00;;;;;;;;;;5015430;28;20048;-80
2023/07/27 14:25:03;;;;;;;3.70;1.90;;;;;;;;;;5003013;28;20455;-80
2023/07/27 14:27:33;;;;;;;2.40;1.73;;;;;;;;;;5030895;28;20056;-80
2023/07/27 14:30:03;;;;;;;2.38;1.60;;;;;;;;;;5015615;28;20041;-80
2023/07/27 14:32:30;;;;;;;2.17;1.27;;;;;;;;;;5020705;28;20049;-79
2023/07/27 14:34:57;;;;;;;2.63;1.10;;;;;;;;;;5012977;28;20598;-81
2023/07/27 14:37:27;;;;;;;1.92;1.40;;;;;;;;;;5021861;28;20073;-80
2023/07/27 14:39:54;;;;;;;4.00;1.70;;;;;;;;;;5053927;28;20370;-80
2023/07/27 14:42:20;;;;;;;2.17;1.25;;;;;;;;;;5024195;28;20156;-80
2023/07/27 14:44:49;;;;;;;4.40;1.50;;;;;;;;;;5025550;28;20045;-80
2023/07/27 14:47:16;;;;;;;2.35;1.10;;;;;;;;;;5058071;28;20049;-83